Time;durP1;ratioP1;P1;durP2;ratioP2;P2;SDS_P1;SDS_P2;PMS_P1;PMS_P2;Temp;Humidity;BMP_temperature;BMP_pressure;BME280_temperature;BME280_humidity;BME280_pressure;Samples;Min_cycle;Max_cycle;Signal;HPM_P1;HPM_P2
2020/07/02 00:00:39;;;;;;;2.6;1.3;;;;;;;18.2;87.3125;936.0101;;;;
2020/07/02 00:03:05;;;;;;;2.4;1.5;;;;;;;17.95;88.08691;936.1012;;;;
2020/07/02 00:05:30;;;;;;;1.7;1.2;;;;;;;17.75;88.83691;936.1978;;;;
2020/07/02 00:07:55;;;;;;;2.4;1.2;;;;;;;17.68;89.45996;936.1309;;;;
2020/07/02 00:10:22;;;;;;;2.8;1.3;;;;;;;17.85;88.74023;936.0873;;;;
2020/07/02 00:12:47;;;;;;;1.7;1.3;;;;;;;17.84;88.99609;936.1172;;;;
2020/07/02 00:15:12;;;;;;;1.4;1.2;;;;;;;17.81;88.90527;935.9783;;;;
2020/07/02 00:17:40;;;;;;;2.2;1.2;;;;;;;17.74;88.95117;935.9974;;;;
2020/07/02 00:20:05;;;;;;;5.4;1.3;;;;;;;17.79;88.81055;935.9456;;;;
2020/07/02 00:22:33;;;;;;;4.2;1.4;;;;;;;17.84;89.00586;935.9642;;;;
2020/07/02 00:24:58;;;;;;;2.7;1.2;;;;;;;17.93;89.31641;936.0168;;;;
2020/07/02 00:27:25;;;;;;;2.4;1.3;;;;;;;18;88.98047;936.0089;;;;
2020/07/02 00:29:50;;;;;;;2;1.2;;;;;;;18.05;88.1416;935.9405;;;;
2020/07/02 00:32:15;;;;;;;3;1.4;;;;;;;18.11;88.13086;935.91;;;;
2020/07/02 00:34:41;;;;;;;1.8;1.4;;;;;;;18.15;87.75488;935.8381;;;;
2020/07/02 00:37:06;;;;;;;2.8;1.2;;;;;;;18.19;87.23926;935.8994;;;;
2020/07/02 00:39:32;;;;;;;1.4;1.3;;;;;;;18.21;87.17285;935.7957;;;;
2020/07/02 00:41:57;;;;;;;1.9;1.4;;;;;;;18.21;86.58398;935.8947;;;;
2020/07/02 00:44:25;;;;;;;3.9;1.4;;;;;;;18.25;86.77734;935.8861;;;;
2020/07/02 00:46:50;;;;;;;2.3;1;;;;;;;18.27;86.37402;935.913;;;;
2020/07/02 00:49:15;;;;;;;1.8;1.3;;;;;;;18.07;86.4043;935.9229;;;;
2020/07/02 00:51:40;;;;;;;2.6;1.2;;;;;;;17.9;87.2168;935.8574;;;;
2020/07/02 00:54:06;;;;;;;3.2;1.1;;;;;;;17.82;87.10938;935.8306;;;;
2020/07/02 00:56:31;;;;;;;1.7;1;;;;;;;17.88;86.12305;935.7095;;;;
2020/07/02 00:58:57;;;;;;;2.5;0.9;;;;;;;17.97;87.47461;935.6552;;;;
2020/07/02 01:01:22;;;;;;;2;1.3;;;;;;;17.93;87.09766;935.6978;;;;
2020/07/02 01:03:50;;;;;;;1.2;1.1;;;;;;;18.03;87.7793;935.6564;;;;
2020/07/02 01:06:19;;;;;;;1.2;1;;;;;;;17.99;87.51563;935.6724;;;;
2020/07/02 01:08:45;;;;;;;1.7;1.1;;;;;;;18.04;86.34082;935.6561;;;;
2020/07/02 01:11:11;;;;;;;3.9;1.3;;;;;;;18.16;87.61719;935.6736;;;;
2020/07/02 01:13:37;;;;;;;2.2;1.1;;;;;;;18.29;86.54004;935.6586;;;;
2020/07/02 01:16:05;;;;;;;3.6;1.2;;;;;;;18.4;86.44531;935.6358;;;;
2020/07/02 01:18:30;;;;;;;1.4;1.1;;;;;;;18.35;86.90137;935.6223;;;;
2020/07/02 01:20:56;;;;;;;3.4;1.3;;;;;;;18.34;87.03711;935.5784;;;;
2020/07/02 01:23:23;;;;;;;3.2;1.1;;;;;;;18.38;87.44141;935.5959;;;;
2020/07/02 01:25:48;;;;;;;1.8;1.3;;;;;;;18.37;87.54395;935.6139;;;;
2020/07/02 01:28:14;;;;;;;2.1;1.2;;;;;;;18.22;87.72266;935.6192;;;;
2020/07/02 01:30:39;;;;;;;3.7;1.2;;;;;;;18.11;87.87598;935.5924;;;;
2020/07/02 01:33:06;;;;;;;2.3;1.3;;;;;;;18.1;88.0127;935.5878;;;;
2020/07/02 01:35:31;;;;;;;1.8;1.4;;;;;;;18.19;87.70801;935.5938;;;;
2020/07/02 01:37:58;;;;;;;2.9;1.4;;;;;;;18.13;88.19238;935.6501;;;;
2020/07/02 01:40:23;;;;;;;5.9;1.5;;;;;;;18.05;88.61816;935.726;;;;
2020/07/02 01:42:49;;;;;;;3.3;1.4;;;;;;;17.95;89.35254;935.7225;;;;
2020/07/02 01:45:14;;;;;;;2.7;1.4;;;;;;;18.01;88.86621;935.6896;;;;
2020/07/02 01:47:39;;;;;;;2.2;1.4;;;;;;;18.08;88.46289;935.7043;;;;
2020/07/02 01:50:06;;;;;;;1.4;1.3;;;;;;;18.01;88.65723;935.6945;;;;
2020/07/02 01:52:31;;;;;;;2.2;1.4;;;;;;;18.09;88.41797;935.7517;;;;
2020/07/02 01:54:59;;;;;;;2.5;1.4;;;;;;;18.12;88.49512;935.755;;;;
2020/07/02 01:57:24;;;;;;;2.6;1.6;;;;;;;18.14;88.55469;935.7297;;;;
2020/07/02 01:59:54;;;;;;;2;1.4;;;;;;;18.09;88.29199;935.6614;;;;
2020/07/02 02:02:19;;;;;;;2.5;1.5;;;;;;;18.11;87.69922;935.7126;;;;
2020/07/02 02:04:46;;;;;;;2.1;1.4;;;;;;;18.12;88.06348;935.7422;;;;
2020/07/02 02:07:11;;;;;;;4.9;1.5;;;;;;;18.12;88.41211;935.8156;;;;
2020/07/02 02:09:38;;;;;;;3;1.4;;;;;;;18.1;88.68652;935.7853;;;;
2020/07/02 02:12:03;;;;;;;3.8;1.4;;;;;;;18.13;88.18164;935.7282;;;;
2020/07/02 02:14:30;;;;;;;4;1.3;;;;;;;18.16;88.57227;935.6485;;;;
2020/07/02 02:16:55;;;;;;;3.6;1.6;;;;;;;18.08;88.09082;935.7277;;;;
2020/07/02 02:19:21;;;;;;;2.7;1.3;;;;;;;18.11;87.98047;935.7183;;;;
2020/07/02 02:21:46;;;;;;;3.4;1.2;;;;;;;17.78;88.48438;935.5648;;;;
2020/07/02 02:24:13;;;;;;;1.6;1.3;;;;;;;17.69;89.19727;935.5814;;;;
2020/07/02 02:26:38;;;;;;;1.7;1.3;;;;;;;17.75;88.65039;935.6534;;;;
2020/07/02 02:29:06;;;;;;;4;1.2;;;;;;;17.88;88.78223;935.6168;;;;
2020/07/02 02:31:32;;;;;;;1.7;1.3;;;;;;;17.87;88.74609;935.5929;;;;
2020/07/02 02:34:01;;;;;;;2.5;1.4;;;;;;;17.87;89.20996;935.551;;;;
2020/07/02 02:36:26;;;;;;;3.5;1.5;;;;;;;17.94;89.00391;935.6299;;;;
2020/07/02 02:38:51;;;;;;;2;1.3;;;;;;;17.97;89.18359;935.6067;;;;
2020/07/02 02:41:17;;;;;;;3.3;1.3;;;;;;;17.84;89.03027;935.5784;;;;
2020/07/02 02:43:42;;;;;;;2.6;1.5;;;;;;;17.71;89.58203;935.5256;;;;
2020/07/02 02:46:08;;;;;;;4;1.6;;;;;;;17.82;89.35059;935.5375;;;;
2020/07/02 02:48:36;;;;;;;4.3;1.6;;;;;;;17.92;88.97559;935.5708;;;;
2020/07/02 02:51:01;;;;;;;2.3;1.5;;;;;;;18.02;88.53125;935.5705;;;;
2020/07/02 02:53:27;;;;;;;3.1;1.5;;;;;;;17.98;88.26855;935.65;;;;
2020/07/02 02:55:52;;;;;;;5.6;1.6;;;;;;;18.06;88.30762;935.6217;;;;
2020/07/02 02:58:18;;;;;;;4.2;1.6;;;;;;;18.11;88.33984;935.5667;;;;
2020/07/02 03:00:43;;;;;;;3.2;1.7;;;;;;;18.03;88.18652;935.5516;;;;
2020/07/02 03:03:11;;;;;;;3;1.7;;;;;;;17.91;88.68359;935.5783;;;;
2020/07/02 03:05:36;;;;;;;2.7;1.5;;;;;;;17.88;88.84082;935.6055;;;;
2020/07/02 03:08:02;;;;;;;2.5;1.5;;;;;;;17.91;88.76465;935.601;;;;
2020/07/02 03:10:27;;;;;;;4.6;1.7;;;;;;;17.85;89.75098;935.5813;;;;
2020/07/02 03:12:52;;;;;;;3.1;2.1;;;;;;;17.82;89.80273;935.5675;;;;
2020/07/02 03:15:21;;;;;;;4.2;1.7;;;;;;;17.92;89.71875;935.5555;;;;
2020/07/02 03:17:48;;;;;;;3.7;1.6;;;;;;;17.94;89.43262;935.5269;;;;
2020/07/02 03:20:13;;;;;;;3;1.7;;;;;;;17.88;89.55859;935.5711;;;;
2020/07/02 03:22:39;;;;;;;2.6;1.6;;;;;;;17.86;89.4502;935.5851;;;;
2020/07/02 03:25:04;;;;;;;2.5;1.5;;;;;;;17.85;89.55469;935.5756;;;;
2020/07/02 03:27:30;;;;;;;4.2;1.6;;;;;;;17.86;89.74121;935.6206;;;;
2020/07/02 03:29:55;;;;;;;3.5;1.7;;;;;;;17.96;89.64453;935.6281;;;;
2020/07/02 03:32:22;;;;;;;5.4;1.5;;;;;;;17.89;89.55078;935.6852;;;;
2020/07/02 03:34:47;;;;;;;3.2;1.4;;;;;;;17.97;89.02148;935.717;;;;
2020/07/02 03:37:12;;;;;;;2.7;1.3;;;;;;;18.07;88.60059;935.7659;;;;
2020/07/02 03:39:38;;;;;;;4.3;1.7;;;;;;;18.11;87.75781;935.753;;;;
2020/07/02 03:42:03;;;;;;;3.3;1.5;;;;;;;18.08;87.69434;935.7303;;;;
2020/07/02 03:44:28;;;;;;;2.4;1.5;;;;;;;18.14;87.93945;935.7861;;;;
2020/07/02 03:46:53;;;;;;;4.2;1.7;;;;;;;18.12;88.19141;935.7769;;;;
2020/07/02 03:49:20;;;;;;;2.4;1.6;;;;;;;18.09;88.2334;935.8096;;;;
2020/07/02 03:51:45;;;;;;;4.1;1.7;;;;;;;18.13;87.89063;935.8329;;;;
2020/07/02 03:54:10;;;;;;;3.9;1.7;;;;;;;18.12;87.94727;935.7583;;;;
2020/07/02 03:56:35;;;;;;;2.7;1.6;;;;;;;18.14;88.125;935.8796;;;;
2020/07/02 03:59:00;;;;;;;2.7;1.6;;;;;;;18.05;88.24805;935.8412;;;;
2020/07/02 04:02:33;;;;;;;5.4;1.8;;;;;;;18.12;87.88867;935.8494;;;;
2020/07/02 04:04:58;;;;;;;4.4;1.8;;;;;;;18.15;87.73145;935.8214;;;;
2020/07/02 04:07:25;;;;;;;3;1.6;;;;;;;18.13;87.95996;935.8684;;;;
2020/07/02 04:09:50;;;;;;;4.1;2.1;;;;;;;18.2;87.60352;935.8563;;;;
2020/07/02 04:12:17;;;;;;;3.1;2;;;;;;;18.22;88.14258;935.8311;;;;
2020/07/02 04:14:42;;;;;;;3.7;1.7;;;;;;;18.18;88.53906;935.8552;;;;
2020/07/02 04:17:07;;;;;;;3.1;1.6;;;;;;;18.14;88.75391;935.8528;;;;
2020/07/02 04:19:33;;;;;;;4.7;1.8;;;;;;;18.2;88.20703;935.8112;;;;
2020/07/02 04:21:58;;;;;;;2.4;1.9;;;;;;;18.12;88.45801;935.8856;;;;
2020/07/02 04:24:25;;;;;;;3;1.7;;;;;;;18.17;88.65527;935.8716;;;;
2020/07/02 04:26:50;;;;;;;4.3;2;;;;;;;18.25;88.69434;935.9434;;;;
2020/07/02 04:29:16;;;;;;;2.4;2;;;;;;;18.22;88.17773;935.9511;;;;
2020/07/02 04:31:41;;;;;;;5;2.3;;;;;;;18.11;88.89746;935.9437;;;;
2020/07/02 04:34:09;;;;;;;2.8;1.7;;;;;;;17.83;89.47949;935.9999;;;;
2020/07/02 04:36:33;;;;;;;4.7;2;;;;;;;17.71;90.5127;936.0472;;;;
2020/07/02 04:38:58;;;;;;;4.3;1.8;;;;;;;17.8;90.18262;935.9695;;;;
2020/07/02 04:41:23;;;;;;;4.3;1.6;;;;;;;17.77;89.73438;936.0219;;;;
2020/07/02 04:43:48;;;;;;;5.3;1.8;;;;;;;17.78;89.94629;936.0505;;;;
2020/07/02 04:46:14;;;;;;;3;2;;;;;;;17.86;89.8584;936.0539;;;;
2020/07/02 04:48:39;;;;;;;6.2;1.9;;;;;;;17.87;89.78906;936.0338;;;;
2020/07/02 04:51:04;;;;;;;3.3;1.6;;;;;;;17.68;89.76172;936.1132;;;;
2020/07/02 04:53:29;;;;;;;3;1.8;;;;;;;17.67;90.12012;936.0753;;;;
2020/07/02 04:55:56;;;;;;;5.1;2.1;;;;;;;17.65;90.29004;936.0917;;;;
2020/07/02 04:58:21;;;;;;;5;2.1;;;;;;;17.79;90.61035;936.1091;;;;
2020/07/02 05:00:49;;;;;;;5.2;1.9;;;;;;;17.87;89.48926;936.0311;;;;
2020/07/02 05:03:15;;;;;;;2.5;1.6;;;;;;;17.84;89.53027;936.0262;;;;
2020/07/02 05:05:40;;;;;;;5;1.5;;;;;;;17.9;89.47168;936.0555;;;;
2020/07/02 05:08:05;;;;;;;3;1.4;;;;;;;18;89.52441;936.067;;;;
2020/07/02 05:10:31;;;;;;;3.6;1.7;;;;;;;18.1;89.07031;936.0673;;;;
2020/07/02 05:12:56;;;;;;;1.6;1.2;;;;;;;18.19;88.62207;936.1186;;;;
2020/07/02 05:15:27;;;;;;;2.7;1.5;;;;;;;18.24;88.55176;936.1442;;;;
2020/07/02 05:17:56;;;;;;;3.4;1.4;;;;;;;18.36;87.44727;936.089;;;;
2020/07/02 05:20:21;;;;;;;2.9;1.4;;;;;;;18.38;88.39453;936.0787;;;;
2020/07/02 05:22:48;;;;;;;3.1;1.4;;;;;;;18.4;86.64258;936.155;;;;
2020/07/02 05:25:13;;;;;;;3.1;1.3;;;;;;;18.35;86.99414;936.1867;;;;
2020/07/02 05:27:39;;;;;;;4.7;1.2;;;;;;;18.29;86.64453;936.205;;;;
2020/07/02 05:30:04;;;;;;;2.8;1.6;;;;;;;18.39;86.39648;936.2148;;;;
2020/07/02 05:32:32;;;;;;;4.2;1.6;;;;;;;18.49;86.87012;936.241;;;;
2020/07/02 05:34:57;;;;;;;4.9;1.7;;;;;;;18.64;86.23535;936.2459;;;;
2020/07/02 05:37:24;;;;;;;3.1;1.4;;;;;;;18.6;85.32324;936.2536;;;;
2020/07/02 05:39:49;;;;;;;5.9;1.5;;;;;;;18.67;85.25391;936.262;;;;
2020/07/02 05:42:14;;;;;;;3.1;1.5;;;;;;;18.54;85.36719;936.2776;;;;
2020/07/02 05:44:41;;;;;;;3.6;1.4;;;;;;;18.51;85.27051;936.2831;;;;
2020/07/02 05:47:05;;;;;;;2.3;1.3;;;;;;;18.64;85.02539;936.2662;;;;
2020/07/02 05:49:33;;;;;;;3.7;1.3;;;;;;;18.73;85.15918;936.2938;;;;
2020/07/02 05:51:58;;;;;;;7.8;1.6;;;;;;;18.88;86.09863;936.2991;;;;
2020/07/02 05:54:25;;;;;;;4.4;1.5;;;;;;;18.91;85.82324;936.2791;;;;
2020/07/02 05:56:50;;;;;;;5.7;1.5;;;;;;;18.76;85.35254;936.3237;;;;
2020/07/02 05:59:15;;;;;;;2.5;1.3;;;;;;;;;;;;;
2020/07/02 06:01:40;;;;;;;2.6;1.4;;;;;;;;;;;;;
2020/07/02 06:04:06;;;;;;;4.5;1.3;;;;;;;;;;;;;
2020/07/02 06:06:31;;;;;;;5.6;1.5;;;;;;;;;;;;;
2020/07/02 06:08:56;;;;;;;8.3;1.6;;;;;;;;;;;;;
2020/07/02 06:11:21;;;;;;;3.3;1.4;;;;;;;;;;;;;
2020/07/02 06:13:46;;;;;;;2.8;1.6;;;;;;;;;;;;;
2020/07/02 06:16:12;;;;;;;2.7;1.3;;;;;;;;;;;;;
2020/07/02 06:18:36;;;;;;;2.4;1.3;;;;;;;;;;;;;
2020/07/02 06:21:03;;;;;;;3.1;1.2;;;;;;;;;;;;;
2020/07/02 06:23:28;;;;;;;2.3;1.5;;;;;;;;;;;;;
2020/07/02 06:25:55;;;;;;;4.3;1.5;;;;;;;;;;;;;
2020/07/02 06:28:20;;;;;;;3.2;2;;;;;;;;;;;;;
2020/07/02 06:30:45;;;;;;;3.3;1.8;;;;;;;;;;;;;
2020/07/02 06:33:11;;;;;;;7.5;3.1;;;;;;;;;;;;;
2020/07/02 06:35:36;;;;;;;4.9;2.3;;;;;;;;;;;;;
2020/07/02 06:38:02;;;;;;;9.1;4.5;;;;;;;;;;;;;
2020/07/02 06:40:27;;;;;;;8.3;4;;;;;;;;;;;;;
2020/07/02 06:42:54;;;;;;;6.9;3;;;;;;;;;;;;;
2020/07/02 06:45:19;;;;;;;9.8;3.6;;;;;;;;;;;;;
2020/07/02 06:47:44;;;;;;;6.2;2.5;;;;;;;;;;;;;
2020/07/02 06:50:09;;;;;;;4.9;2.6;;;;;;;;;;;;;
2020/07/02 06:52:36;;;;;;;4.9;2.2;;;;;;;;;;;;;
2020/07/02 06:55:01;;;;;;;5.7;2.1;;;;;;;;;;;;;
2020/07/02 06:57:27;;;;;;;7.9;1.9;;;;;;;;;;;;;
2020/07/02 06:59:52;;;;;;;4.2;1.9;;;;;;;;;;;;;
2020/07/02 07:02:19;;;;;;;5.6;1.7;;;;;;;;;;;;;
2020/07/02 07:04:44;;;;;;;3.5;1.5;;;;;;;;;;;;;
2020/07/02 07:07:09;;;;;;;3;1.2;;;;;;;;;;;;;
2020/07/02 07:09:34;;;;;;;2;1.2;;;;;;;;;;;;;
2020/07/02 07:11:59;;;;;;;2.7;1.4;;;;;;;;;;;;;
2020/07/02 07:14:25;;;;;;;4.5;1.6;;;;;;;;;;;;;
2020/07/02 07:16:51;;;;;;;3.2;1.5;;;;;;;;;;;;;
2020/07/02 07:19:16;;;;;;;6.7;2;;;;;;;;;;;;;
2020/07/02 07:21:42;;;;;;;3;1.4;;;;;;;;;;;;;
2020/07/02 07:24:07;;;;;;;3.8;1.5;;;;;;;;;;;;;
2020/07/02 07:26:33;;;;;;;4.8;1.2;;;;;;;;;;;;;
2020/07/02 07:28:58;;;;;;;3.7;1.2;;;;;;;;;;;;;
2020/07/02 07:31:26;;;;;;;4.9;1.2;;;;;;;;;;;;;
2020/07/02 07:33:51;;;;;;;3.7;1.1;;;;;;;;;;;;;
2020/07/02 07:36:16;;;;;;;1.7;1.1;;;;;;;;;;;;;
2020/07/02 07:38:41;;;;;;;3.9;1.2;;;;;;;;;;;;;
2020/07/02 07:41:07;;;;;;;4.7;1.2;;;;;;;;;;;;;
2020/07/02 07:43:32;;;;;;;2.7;1.1;;;;;;;;;;;;;
2020/07/02 07:46:00;;;;;;;3;1.4;;;;;;;;;;;;;
2020/07/02 07:48:25;;;;;;;1.4;0.8;;;;;;;;;;;;;
2020/07/02 07:50:51;;;;;;;2;0.8;;;;;;;;;;;;;
2020/07/02 07:53:16;;;;;;;2.1;0.9;;;;;;;;;;;;;
2020/07/02 07:55:44;;;;;;;2.7;0.9;;;;;;;;;;;;;
2020/07/02 07:58:09;;;;;;;3.4;1.2;;;;;;;;;;;;;
2020/07/02 08:00:35;;;;;;;2.8;1;;;;;;;;;;;;;
2020/07/02 08:03:00;;;;;;;1.7;1;;;;;;;;;;;;;
2020/07/02 08:05:26;;;;;;;1.9;0.9;;;;;;;;;;;;;
2020/07/02 08:07:51;;;;;;;2.4;0.8;;;;;;;;;;;;;
2020/07/02 08:10:17;;;;;;;3.9;0.9;;;;;;;;;;;;;
2020/07/02 08:12:42;;;;;;;2.4;0.7;;;;;;;;;;;;;
2020/07/02 08:15:10;;;;;;;2.4;0.8;;;;;;;;;;;;;
2020/07/02 08:17:35;;;;;;;3;0.7;;;;;;;;;;;;;
2020/07/02 08:20:00;;;;;;;2.1;0.6;;;;;;;;;;;;;
2020/07/02 08:22:25;;;;;;;7.3;1.3;;;;;;;;;;;;;
2020/07/02 08:24:50;;;;;;;4.8;0.9;;;;;;;;;;;;;
2020/07/02 08:27:15;;;;;;;5.3;1.2;;;;;;;;;;;;;
2020/07/02 08:29:41;;;;;;;2.2;0.9;;;;;;;;;;;;;
2020/07/02 08:32:06;;;;;;;3.2;0.8;;;;;;;;;;;;;
2020/07/02 08:34:33;;;;;;;5.3;1.1;;;;;;;;;;;;;
2020/07/02 08:36:58;;;;;;;3.1;1;;;;;;;;;;;;;
2020/07/02 08:39:24;;;;;;;1.9;0.9;;;;;;;;;;;;;
2020/07/02 08:41:49;;;;;;;3.1;0.9;;;;;;;;;;;;;
2020/07/02 08:44:15;;;;;;;7.6;1.5;;;;;;;;;;;;;
2020/07/02 08:46:40;;;;;;;3.1;0.8;;;;;;;;;;;;;
2020/07/02 08:49:05;;;;;;;4.2;1;;;;;;;;;;;;;
2020/07/02 08:51:31;;;;;;;4.3;1.2;;;;;;;;;;;;;
2020/07/02 08:53:56;;;;;;;11.4;1.9;;;;;;;;;;;;;
2020/07/02 08:56:22;;;;;;;2.3;0.9;;;;;;;;;;;;;
2020/07/02 08:58:47;;;;;;;2.2;0.8;;;;;;;;;;;;;
2020/07/02 09:01:13;;;;;;;2.9;1.1;;;;;;;;;;;;;
2020/07/02 09:03:38;;;;;;;2.4;1;;;;;;;;;;;;;
2020/07/02 09:06:04;;;;;;;1.5;0.8;;;;;;;;;;;;;
2020/07/02 09:08:29;;;;;;;1.4;0.7;;;;;;;;;;;;;
2020/07/02 09:10:57;;;;;;;2.5;0.6;;;;;;;;;;;;;
2020/07/02 09:13:22;;;;;;;2.5;0.7;;;;;;;;;;;;;
2020/07/02 09:15:48;;;;;;;2.8;0.9;;;;;;;;;;;;;
2020/07/02 09:18:13;;;;;;;1.7;1.1;;;;;;;;;;;;;
2020/07/02 09:20:40;;;;;;;2.5;1.6;;;;;;;;;;;;;
2020/07/02 09:23:05;;;;;;;2.2;1.3;;;;;;;;;;;;;
2020/07/02 09:25:30;;;;;;;1.6;1.1;;;;;;;;;;;;;
2020/07/02 09:27:55;;;;;;;2.2;0.9;;;;;;;;;;;;;
2020/07/02 09:30:24;;;;;;;2.3;0.9;;;;;;;;;;;;;
2020/07/02 09:32:49;;;;;;;1.1;0.6;;;;;;;;;;;;;
2020/07/02 09:35:15;;;;;;;2;0.9;;;;;;;;;;;;;
2020/07/02 09:37:40;;;;;;;1.6;0.7;;;;;;;;;;;;;
2020/07/02 09:40:09;;;;;;;2.4;0.7;;;;;;;;;;;;;
2020/07/02 09:42:34;;;;;;;6.4;1.2;;;;;;;;;;;;;
2020/07/02 09:44:59;;;;;;;4.8;0.8;;;;;;;;;;;;;
2020/07/02 09:47:24;;;;;;;2.2;0.7;;;;;;;;;;;;;
2020/07/02 09:49:49;;;;;;;1.5;0.9;;;;;;;;;;;;;
2020/07/02 09:52:16;;;;;;;1.7;0.7;;;;;;;;;;;;;
2020/07/02 09:54:42;;;;;;;1.3;0.7;;;;;;;;;;;;;
2020/07/02 09:57:07;;;;;;;0.7;0.5;;;;;;;;;;;;;
2020/07/02 09:59:32;;;;;;;3.9;1;;;;;;;;;;;;;
2020/07/02 10:01:59;;;;;;;1.6;0.6;;;;;;;;;;;;;
2020/07/02 10:04:24;;;;;;;1;0.4;;;;;;;;;;;;;
2020/07/02 10:06:50;;;;;;;0.7;0.4;;;;;;;;;;;;;
2020/07/02 10:09:15;;;;;;;2;0.5;;;;;;;;;;;;;
2020/07/02 10:11:40;;;;;;;1.3;0.6;;;;;;;;;;;;;
2020/07/02 10:14:05;;;;;;;5.4;0.9;;;;;;;;;;;;;
2020/07/02 10:16:30;;;;;;;2.7;0.8;;;;;;;;;;;;;
2020/07/02 10:18:55;;;;;;;4.9;0.9;;;;;;;;;;;;;
2020/07/02 10:21:20;;;;;;;2.5;0.7;;;;;;;;;;;;;
2020/07/02 10:23:46;;;;;;;2.8;0.9;;;;;;;;;;;;;
2020/07/02 10:26:11;;;;;;;2.5;0.6;;;;;;;;;;;;;
2020/07/02 10:28:35;;;;;;;2.9;0.6;;;;;;;;;;;;;
2020/07/02 10:31:01;;;;;;;2.4;0.5;;;;;;;;;;;;;
2020/07/02 10:33:26;;;;;;;3.9;0.6;;;;;;;;;;;;;
2020/07/02 10:35:52;;;;;;;1.5;0.4;;;;;;;;;;;;;
2020/07/02 10:38:17;;;;;;;2.4;0.7;;;;;;;;;;;;;
2020/07/02 10:40:45;;;;;;;1.4;0.5;;;;;;;;;;;;;
2020/07/02 10:43:10;;;;;;;1.5;0.6;;;;;;;;;;;;;
2020/07/02 10:45:35;;;;;;;0.4;0.4;;;;;;;;;;;;;
2020/07/02 10:48:00;;;;;;;1.7;0.5;;;;;;;;;;;;;
2020/07/02 10:50:25;;;;;;;0.7;0.4;;;;;;;;;;;;;
2020/07/02 10:52:50;;;;;;;2.5;0.6;;;;;;;;;;;;;
2020/07/02 10:55:17;;;;;;;1.2;0.5;;;;;;;;;;;;;
2020/07/02 10:57:42;;;;;;;1.4;0.5;;;;;;;;;;;;;
2020/07/02 11:00:10;;;;;;;1.7;0.5;;;;;;;;;;;;;
2020/07/02 11:02:35;;;;;;;1;0.6;;;;;;;;;;;;;
2020/07/02 11:05:00;;;;;;;2.9;0.4;;;;;;;;;;;;;
2020/07/02 11:07:25;;;;;;;1.6;0.6;;;;;;;;;;;;;
2020/07/02 11:09:50;;;;;;;2;0.6;;;;;;;;;;;;;
2020/07/02 11:12:15;;;;;;;0.7;0.4;;;;;;;;;;;;;
2020/07/02 11:14:41;;;;;;;1;0.5;;;;;;;;;;;;;
2020/07/02 11:17:06;;;;;;;1.9;0.7;;;;;;;;;;;;;
2020/07/02 11:19:31;;;;;;;2.5;0.6;;;;;;;;;;;;;
2020/07/02 11:21:56;;;;;;;1.7;0.7;;;;;;;;;;;;;
2020/07/02 11:24:21;;;;;;;1;0.6;;;;;;;;;;;;;
2020/07/02 11:26:46;;;;;;;1.4;0.5;;;;;;;;;;;;;
2020/07/02 11:29:11;;;;;;;1.2;0.7;;;;;;;;;;;;;
2020/07/02 11:31:37;;;;;;;0.6;0.6;;;;;;;;;;;;;
2020/07/02 11:34:02;;;;;;;0.7;0.5;;;;;;;;;;;;;
2020/07/02 11:36:28;;;;;;;1.9;0.6;;;;;;;;;;;;;
2020/07/02 11:38:53;;;;;;;1.1;0.6;;;;;;;;;;;;;
2020/07/02 11:41:30;;;;;;;2.2;0.7;;;;;;;;;;;;;
2020/07/02 11:43:43;;;;;;;2;0.6;;;;;;;;;;;;;
2020/07/02 11:46:09;;;;;;;0.7;0.6;;;;;;;;;;;;;
2020/07/02 11:48:34;;;;;;;2.2;0.6;;;;;;;;;;;;;
2020/07/02 11:51:00;;;;;;;1.7;0.6;;;;;;;;;;;;;
2020/07/02 11:53:25;;;;;;;2.7;1;;;;;;;;;;;;;
2020/07/02 11:55:50;;;;;;;1.7;0.7;;;;;;;;;;;;;
2020/07/02 11:58:15;;;;;;;1.5;0.6;;;;;;;;;;;;;
2020/07/02 12:00:40;;;;;;;2.6;0.7;;;;;;;;;;;;;
2020/07/02 12:03:05;;;;;;;2.1;0.7;;;;;;;;;;;;;
2020/07/02 12:05:30;;;;;;;1.2;0.7;;;;;;;;;;;;;
2020/07/02 12:07:56;;;;;;;3.3;0.7;;;;;;;;;;;;;
2020/07/02 12:10:21;;;;;;;1;0.7;;;;;;;;;;;;;
2020/07/02 12:12:47;;;;;;;3.2;0.7;;;;;;;;;;;;;
2020/07/02 12:15:12;;;;;;;2;0.6;;;;;;;;;;;;;
2020/07/02 12:17:37;;;;;;;2.5;0.8;;;;;;;;;;;;;
2020/07/02 12:20:02;;;;;;;2.9;0.8;;;;;;;;;;;;;
2020/07/02 12:22:27;;;;;;;1.8;0.9;;;;;;;;;;;;;
2020/07/02 12:24:52;;;;;;;1.3;0.8;;;;;;;;;;;;;
2020/07/02 12:27:17;;;;;;;2.6;0.8;;;;;;;;;;;;;
2020/07/02 12:29:43;;;;;;;2.3;0.8;;;;;;;;;;;;;
2020/07/02 12:32:08;;;;;;;3.3;1;;;;;;;;;;;;;
2020/07/02 12:34:33;;;;;;;3.9;0.9;;;;;;;;;;;;;
2020/07/02 12:36:58;;;;;;;2.7;1;;;;;;;;;;;;;
2020/07/02 12:39:23;;;;;;;2.1;0.8;;;;;;;;;;;;;
2020/07/02 12:41:48;;;;;;;2.1;0.9;;;;;;;;;;;;;
2020/07/02 12:44:14;;;;;;;1.7;1;;;;;;;;;;;;;
2020/07/02 12:46:39;;;;;;;1.3;0.8;;;;;;;;;;;;;
2020/07/02 12:49:14;;;;;;;1.4;1;;;;;;;;;;;;;
2020/07/02 12:51:29;;;;;;;1.8;0.8;;;;;;;;;;;;;
2020/07/02 12:53:54;;;;;;;2.7;1;;;;;;;;;;;;;
2020/07/02 12:56:20;;;;;;;2.1;1.1;;;;;;;;;;;;;
2020/07/02 12:58:45;;;;;;;3.8;1.2;;;;;;;;;;;;;
2020/07/02 13:01:10;;;;;;;2.3;0.9;;;;;;;;;;;;;
2020/07/02 13:03:36;;;;;;;2.8;1.2;;;;;;;;;;;;;
2020/07/02 13:06:01;;;;;;;2.7;1;;;;;;;;;;;;;
2020/07/02 13:08:26;;;;;;;3.6;1.2;;;;;;;;;;;;;
2020/07/02 13:10:51;;;;;;;1.5;1;;;;;;;;;;;;;
2020/07/02 13:13:16;;;;;;;2.9;1;;;;;;;;;;;;;
2020/07/02 13:15:42;;;;;;;1.7;1.1;;;;;;;;;;;;;
2020/07/02 13:18:07;;;;;;;4.2;1.2;;;;;;;;;;;;;
2020/07/02 13:20:32;;;;;;;1.1;1;;;;;;;;;;;;;
2020/07/02 13:22:57;;;;;;;1.9;1.2;;;;;;;;;;;;;
2020/07/02 13:25:23;;;;;;;2.2;1;;;;;;;;;;;;;
2020/07/02 13:27:48;;;;;;;3;1.1;;;;;;;;;;;;;
2020/07/02 13:30:15;;;;;;;4.3;1.3;;;;;;;;;;;;;
2020/07/02 13:32:40;;;;;;;5.5;1.4;;;;;;;;;;;;;
2020/07/02 13:35:06;;;;;;;2.6;1.1;;;;;;;;;;;;;
2020/07/02 13:37:31;;;;;;;2.7;1.2;;;;;;;;;;;;;
2020/07/02 13:39:58;;;;;;;3.1;1.1;;;;;;;;;;;;;
2020/07/02 13:42:23;;;;;;;3.1;1.5;;;;;;;;;;;;;
2020/07/02 13:44:48;;;;;;;3.4;1.5;;;;;;;;;;;;;
2020/07/02 13:47:13;;;;;;;3.3;1.2;;;;;;;;;;;;;
2020/07/02 13:49:39;;;;;;;2.3;1.2;;;;;;;;;;;;;
2020/07/02 13:52:04;;;;;;;3.4;1.4;;;;;;;;;;;;;
2020/07/02 13:54:28;;;;;;;2.9;1.3;;;;;;;;;;;;;
2020/07/02 13:56:54;;;;;;;1.8;1.2;;;;;;;;;;;;;
2020/07/02 13:59:19;;;;;;;2.1;1.2;;;;;;;;;;;;;
2020/07/02 14:01:45;;;;;;;1.7;1.2;;;;;;;;;;;;;
2020/07/02 14:04:11;;;;;;;4;1.3;;;;;;;;;;;;;
2020/07/02 14:06:37;;;;;;;3.4;1.3;;;;;;;;;;;;;
2020/07/02 14:09:01;;;;;;;1.4;1.3;;;;;;;;;;;;;
2020/07/02 14:11:28;;;;;;;2.2;1.2;;;;;;;;;;;;;
2020/07/02 14:13:53;;;;;;;2.4;1.3;;;;;;;;;;;;;
2020/07/02 14:16:18;;;;;;;2.1;1.4;;;;;;;;;;;;;
2020/07/02 14:18:43;;;;;;;2.7;1.4;;;;;;;;;;;;;
2020/07/02 14:21:08;;;;;;;3.1;1.5;;;;;;;;;;;;;
2020/07/02 14:23:34;;;;;;;2.4;1.1;;;;;;;;;;;;;
2020/07/02 14:25:59;;;;;;;3.1;1.3;;;;;;;;;;;;;
2020/07/02 14:28:24;;;;;;;3.7;1.2;;;;;;;;;;;;;
2020/07/02 14:30:49;;;;;;;3.1;1.6;;;;;;;;;;;;;
2020/07/02 14:33:14;;;;;;;5.4;1.7;;;;;;;;;;;;;
2020/07/02 14:35:39;;;;;;;3.8;1.4;;;;;;;;;;;;;
2020/07/02 14:38:04;;;;;;;5.6;1.4;;;;;;;;;;;;;
2020/07/02 14:40:30;;;;;;;5.6;1.8;;;;;;;;;;;;;
2020/07/02 14:42:55;;;;;;;2.6;1.5;;;;;;;;;;;;;
2020/07/02 14:45:20;;;;;;;2.3;1.2;;;;;;;;;;;;;
2020/07/02 14:47:46;;;;;;;1.7;1.1;;;;;;;;;;;;;
2020/07/02 14:50:11;;;;;;;1.2;1.1;;;;;;;;;;;;;
2020/07/02 14:52:36;;;;;;;3.5;1.2;;;;;;;;;;;;;
2020/07/02 14:55:01;;;;;;;2.5;1.3;;;;;;;;;;;;;
2020/07/02 14:57:26;;;;;;;2.6;1.4;;;;;;;;;;;;;
2020/07/02 14:59:53;;;;;;;4.7;1.6;;;;;;;;;;;;;
2020/07/02 15:02:18;;;;;;;4.6;1.6;;;;;;;;;;;;;
2020/07/02 15:04:43;;;;;;;3.3;1.4;;;;;;;;;;;;;
2020/07/02 15:07:08;;;;;;;5.4;1.2;;;;;;;;;;;;;
2020/07/02 15:09:33;;;;;;;3.2;1.3;;;;;;;;;;;;;
2020/07/02 15:11:58;;;;;;;2.7;1.4;;;;;;;;;;;;;
2020/07/02 15:14:23;;;;;;;2.7;1.3;;;;;;;;;;;;;
2020/07/02 15:16:48;;;;;;;2.2;1.1;;;;;;;;;;;;;
2020/07/02 15:19:13;;;;;;;1.5;1.2;;;;;;;;;;;;;
2020/07/02 15:21:38;;;;;;;1.8;1.1;;;;;;;;;;;;;
2020/07/02 15:24:04;;;;;;;1.9;1.3;;;;;;;;;;;;;
2020/07/02 15:26:29;;;;;;;1.4;1.2;;;;;;;;;;;;;
2020/07/02 15:28:54;;;;;;;2.3;1.1;;;;;;;;;;;;;
2020/07/02 15:31:19;;;;;;;1.5;1.2;;;;;;;;;;;;;
2020/07/02 15:33:44;;;;;;;2.2;1.1;;;;;;;;;;;;;
2020/07/02 15:36:10;;;;;;;1.3;1;;;;;;;;;;;;;
2020/07/02 15:38:36;;;;;;;1.7;1.2;;;;;;;;;;;;;
2020/07/02 15:41:01;;;;;;;2;1.2;;;;;;;;;;;;;
2020/07/02 15:43:27;;;;;;;1.8;1.3;;;;;;;;;;;;;
2020/07/02 15:45:52;;;;;;;1.8;1;;;;;;;;;;;;;
2020/07/02 15:48:19;;;;;;;2.7;1.1;;;;;;;;;;;;;
2020/07/02 15:50:44;;;;;;;3.8;1.4;;;;;;;;;;;;;
2020/07/02 15:53:09;;;;;;;2.6;1.4;;;;;;;;;;;;;
2020/07/02 15:55:35;;;;;;;1.5;1.2;;;;;;;;;;;;;
2020/07/02 15:58:01;;;;;;;2.9;1.4;;;;;;;;;;;;;
2020/07/02 16:00:26;;;;;;;2.5;1.3;;;;;;;;;;;;;
2020/07/02 16:02:51;;;;;;;2.1;1.2;;;;;;;;;;;;;
2020/07/02 16:05:17;;;;;;;2.9;1.3;;;;;;;;;;;;;
2020/07/02 16:07:43;;;;;;;2.9;1.4;;;;;;;;;;;;;
2020/07/02 16:10:08;;;;;;;2.1;1.4;;;;;;;;;;;;;
2020/07/02 16:12:33;;;;;;;3.7;1.1;;;;;;;;;;;;;
2020/07/02 16:14:58;;;;;;;1.5;1.1;;;;;;;;;;;;;
2020/07/02 16:17:24;;;;;;;3.7;1.3;;;;;;;;;;;;;
2020/07/02 16:19:49;;;;;;;2.3;1.3;;;;;;;;;;;;;
2020/07/02 16:22:14;;;;;;;4.8;1.4;;;;;;;;;;;;;
2020/07/02 16:24:39;;;;;;;2.9;1.3;;;;;;;;;;;;;
2020/07/02 16:27:04;;;;;;;3.1;1.2;;;;;;;;;;;;;
2020/07/02 16:29:29;;;;;;;2.1;1.3;;;;;;;;;;;;;
2020/07/02 16:31:55;;;;;;;1.7;1.2;;;;;;;;;;;;;
2020/07/02 16:34:20;;;;;;;1.9;1.2;;;;;;;;;;;;;
2020/07/02 16:36:45;;;;;;;3.6;1.3;;;;;;;;;;;;;
2020/07/02 16:39:10;;;;;;;3;1.3;;;;;;;;;;;;;
2020/07/02 16:41:35;;;;;;;3.2;1.3;;;;;;;;;;;;;
2020/07/02 16:44:00;;;;;;;2.4;1.2;;;;;;;;;;;;;
2020/07/02 16:46:26;;;;;;;1.7;1.2;;;;;;;;;;;;;
2020/07/02 16:48:51;;;;;;;1.5;1.1;;;;;;;;;;;;;
2020/07/02 16:51:16;;;;;;;1.2;1;;;;;;;;;;;;;
2020/07/02 16:53:41;;;;;;;4.2;1.3;;;;;;;;;;;;;
2020/07/02 16:56:06;;;;;;;4.3;1.5;;;;;;;;;;;;;
2020/07/02 16:58:32;;;;;;;2;1.3;;;;;;;;;;;;;
2020/07/02 17:00:57;;;;;;;2.1;1.3;;;;;;;;;;;;;
2020/07/02 17:03:22;;;;;;;2.5;1.3;;;;;;;;;;;;;
2020/07/02 17:05:48;;;;;;;3.1;1.3;;;;;;;;;;;;;
2020/07/02 17:08:14;;;;;;;2.9;1.5;;;;;;;;;;;;;
2020/07/02 17:10:40;;;;;;;3.5;1.7;;;;;;;;;;;;;
2020/07/02 17:13:05;;;;;;;4.3;1.6;;;;;;;;;;;;;
2020/07/02 17:15:31;;;;;;;4.8;1.6;;;;;;;;;;;;;
2020/07/02 17:17:56;;;;;;;2.4;1.3;;;;;;;;;;;;;
2020/07/02 17:20:23;;;;;;;2.3;1.2;;;;;;;;;;;;;
2020/07/02 17:22:48;;;;;;;2.8;1.3;;;;;;;;;;;;;
2020/07/02 17:25:14;;;;;;;2.4;1.2;;;;;;;;;;;;;
2020/07/02 17:27:39;;;;;;;2.4;1.3;;;;;;;;;;;;;
2020/07/02 17:30:06;;;;;;;1.6;1.1;;;;;;;;;;;;;
2020/07/02 17:32:31;;;;;;;2;1.1;;;;;;;;;;;;;
2020/07/02 17:34:56;;;;;;;2.3;1.3;;;;;;;;;;;;;
2020/07/02 17:37:22;;;;;;;2.7;1.3;;;;;;;;;;;;;
2020/07/02 17:39:47;;;;;;;2.3;1.3;;;;;;;;;;;;;
2020/07/02 17:42:12;;;;;;;2.9;1.4;;;;;;;;;;;;;
2020/07/02 17:44:38;;;;;;;2.2;1.3;;;;;;;;;;;;;
2020/07/02 17:47:03;;;;;;;2.5;1.5;;;;;;;;;;;;;
2020/07/02 17:49:29;;;;;;;1.8;1.2;;;;;;;;;;;;;
2020/07/02 17:51:54;;;;;;;2.8;1.4;;;;;;;;;;;;;
2020/07/02 17:54:19;;;;;;;2.9;1.4;;;;;;;;;;;;;
2020/07/02 17:56:44;;;;;;;2.2;1.3;;;;;;;;;;;;;